Champlain, NY (12919)

12:54 PM EST on December 10, 2016 (GMT -0500)
Hidden View Farms | | Change Station

Elev 194 ft 44.99 °N, 73.49 °W | Updated 6 minutes ago

Overcast
Overcast
20.9 °F
Feels Like 21 °F
N
0.0
Wind Variable Wind from NNW
Gusts 14.0 mph

Today
High -- | Low -- °F
--% Chance of Precip.
Yesterday
High -- | Low -- °F
Precip. -- in
Pressure 30.31 in
Visibility 10.0 miles
Clouds Scattered Clouds 4400 ft
Overcast 5000 ft
Windchill 21 °F
Dew Point 13 °F
Humidity 72%
Rainfall 0.00 in
Snow Depth Not available.
7:21 AM 4:12 PM
Waxing Gibbous, 85% visible
METAR KFSO 101735Z AUTO 31005KT 10SM SCT044 OVC050 M05/M15 A3031 RMK AO2 T10551151
Pressure 30.31 in
Visibility 10.0 miles
Clouds Scattered Clouds 4400 ft
Overcast 5000 ft
Windchill 21 °F
Dew Point 13 °F
Humidity 72%
Rainfall 0.00 in
Snow Depth Not available.
7:21 AM 4:12 PM
Waxing Gibbous, 85% visible
METAR KFSO 101735Z AUTO 31005KT 10SM SCT044 OVC050 M05/M15 A3031 RMK AO2 T10551151

10-Day Weather Forecast

Almanac

Astronomy

Dec. 10, 2016 Rise Set
Actual Time
Civil Twilight
Nautical Twilight
Astronomical Twilight
Moon
Length of Visible Light
Length of Day
Tomorrow will be .
, % of the Moon is Illuminated

Today's Extremes

State Highs State Lows

Community

WunderPhotos

Upload Photos

1,956,591 photos uploaded!

WunderBlog® & News

Nearby

Air Quality

  Air Quality AQ Index Pollutant
Not available.

Snow Depth

Station Depth Elevation

Earthquake Activity

City Distance Mag. Time & Date
Minimum magnitude displayed is 2.5.

Coastal Water Temperatures

Place Temperature

Stations

Nearby Weather Stations

Station Location Temp. Windchill Dew Point Humidity Wind Precip. Elev Updated Type
                   

Watches & Warnings

There are currently no watches in effect.